Time;durP1;ratioP1;P1;durP2;ratioP2;P2;SDS_P1;SDS_P2;PMS_P1;PMS_P2;Temp;Humidity;BMP_temperature;BMP_pressure;BME280_temperature;BME280_humidity;BME280_pressure;Samples;Min_cycle;Max_cycle;Signal;HPM_P1;HPM_P2
2023/03/11 00:00:15;;;;;;;9.67;9.37;;;21.30;45.80;;;;;;4950970;28;21006;-50
2023/03/11 00:02:43;;;;;;;11.50;11.20;;;21.30;45.80;;;;;;4950464;28;20798;-48
2023/03/11 00:05:12;;;;;;;11.10;10.70;;;21.30;45.70;;;;;;4950694;28;20938;-49
2023/03/11 00:07:39;;;;;;;10.63;10.33;;;21.30;45.80;;;;;;4950446;28;20524;-48
2023/03/11 00:10:07;;;;;;;10.00;9.80;;;21.30;45.70;;;;;;4950454;28;20535;-48
2023/03/11 00:12:34;;;;;;;10.37;10.07;;;21.20;45.60;;;;;;4950252;28;20498;-50
2023/03/11 00:15:02;;;;;;;10.50;10.20;;;21.30;45.70;;;;;;4950545;28;20881;-49
2023/03/11 00:17:29;;;;;;;12.00;11.57;;;21.20;45.70;;;;;;4950495;28;20501;-52
2023/03/11 00:19:56;;;;;;;11.47;11.07;;;21.20;45.80;;;;;;4950416;28;20528;-48
2023/03/11 00:22:23;;;;;;;10.10;9.90;;;21.20;45.80;;;;;;4950302;28;20476;-48
2023/03/11 00:24:50;;;;;;;11.17;10.80;;;21.20;45.90;;;;;;4950430;28;20491;-49
2023/03/11 00:27:16;;;;;;;10.90;10.50;;;21.20;45.90;;;;;;4950103;28;20528;-49
2023/03/11 00:29:43;;;;;;;11.43;11.13;;;21.20;45.90;;;;;;4950420;28;20950;-48
2023/03/11 00:32:12;;;;;;;11.50;11.10;;;21.20;45.90;;;;;;4949973;28;20476;-48
2023/03/11 00:34:38;;;;;;;10.93;10.63;;;21.20;45.90;;;;;;4931123;29;20861;-49
2023/03/11 00:37:05;;;;;;;11.20;10.90;;;21.20;45.80;;;;;;4944979;29;20634;-50
2023/03/11 00:39:32;;;;;;;12.37;11.77;;;21.20;45.80;;;;;;4950161;28;20480;-48
2023/03/11 00:41:59;;;;;;;11.70;11.40;;;21.20;45.70;;;;;;4949947;28;20459;-48
2023/03/11 00:44:26;;;;;;;11.33;10.93;;;21.20;45.70;;;;;;4949817;28;20484;-49
2023/03/11 00:46:53;;;;;;;11.20;10.90;;;21.20;45.80;;;;;;4949797;28;20920;-49
2023/03/11 00:49:21;;;;;;;11.00;10.70;;;21.20;45.90;;;;;;4950070;28;20507;-48
2023/03/11 00:51:48;;;;;;;11.67;11.37;;;21.10;45.80;;;;;;4950006;28;20488;-50
2023/03/11 00:54:15;;;;;;;11.83;11.53;;;21.10;45.90;;;;;;4949856;28;20459;-48
2023/03/11 00:56:42;;;;;;;11.13;10.93;;;21.20;46.00;;;;;;4951624;28;20511;-48
2023/03/11 00:59:09;;;;;;;10.73;10.47;;;21.10;45.90;;;;;;4953330;28;20484;-48
2023/03/11 01:01:36;;;;;;;12.77;12.30;;;21.10;45.90;;;;;;4952971;28;20882;-48
2023/03/11 01:04:03;;;;;;;10.93;10.37;;;21.10;45.80;;;;;;4953272;28;20452;-49
2023/03/11 01:06:31;;;;;;;10.43;10.13;;;21.10;45.90;;;;;;4953087;29;21007;-49
2023/03/11 01:08:58;;;;;;;11.03;10.73;;;21.10;45.90;;;;;;4953154;28;20514;-49
2023/03/11 01:11:25;;;;;;;11.20;10.90;;;21.10;45.90;;;;;;4952726;28;20473;-49
2023/03/11 01:13:51;;;;;;;11.53;11.03;;;21.10;46.00;;;;;;4953195;28;20481;-49
2023/03/11 01:16:20;;;;;;;10.70;10.40;;;21.10;46.00;;;;;;4953242;28;20537;-49
2023/03/11 01:18:47;;;;;;;10.00;9.70;;;21.10;46.00;;;;;;4953380;28;20480;-54
2023/03/11 01:21:13;;;;;;;10.40;10.20;;;21.10;46.00;;;;;;4952676;28;20480;-52
2023/03/11 01:23:42;;;;;;;10.13;9.83;;;21.10;46.00;;;;;;4953188;28;20536;-50
2023/03/11 01:26:09;;;;;;;10.40;10.10;;;21.10;45.90;;;;;;4952769;28;20976;-51
2023/03/11 01:28:36;;;;;;;10.20;9.90;;;21.10;45.90;;;;;;4952768;29;20517;-50
2023/03/11 01:31:03;;;;;;;9.87;9.57;;;21.10;46.00;;;;;;4952749;28;20533;-50
2023/03/11 01:33:30;;;;;;;10.53;10.33;;;21.10;46.00;;;;;;4952637;28;20936;-52
2023/03/11 01:35:57;;;;;;;11.10;10.80;;;21.10;46.00;;;;;;4952763;28;20895;-52
2023/03/11 01:38:24;;;;;;;11.00;10.73;;;21.10;46.00;;;;;;4952787;28;20871;-52
2023/03/11 01:40:52;;;;;;;10.60;10.30;;;21.10;46.10;;;;;;4952511;28;20485;-48
2023/03/11 01:43:47;;;;;;;10.97;10.77;;;21.10;46.10;;;;;;4933391;28;20485;-52
2023/03/11 01:46:18;;;;;;;11.80;11.37;;;21.10;46.20;;;;;;4933340;29;20509;-49
2023/03/11 01:48:47;;;;;;;10.40;10.10;;;21.10;46.20;;;;;;4933403;29;20572;-51
2023/03/11 01:51:15;;;;;;;11.40;11.00;;;21.10;46.20;;;;;;4950690;28;20861;-50
2023/03/11 01:53:43;;;;;;;10.00;9.80;;;21.00;46.20;;;;;;4952507;28;20476;-48
2023/03/11 01:56:13;;;;;;;10.37;10.10;;;21.00;46.20;;;;;;4952396;28;20547;-50
2023/03/11 01:58:44;;;;;;;10.03;9.83;;;21.00;46.30;;;;;;4952645;29;20524;-50
2023/03/11 02:01:12;;;;;;;10.27;9.97;;;21.00;46.30;;;;;;4952057;28;20461;-53
2023/03/11 02:03:40;;;;;;;10.63;10.23;;;21.00;46.30;;;;;;4952531;28;20865;-50
2023/03/11 02:06:11;;;;;;;11.00;10.60;;;21.00;46.30;;;;;;4952256;28;20501;-48
2023/03/11 02:08:39;;;;;;;10.07;9.87;;;21.00;46.40;;;;;;4951228;28;20690;-50
2023/03/11 02:11:10;;;;;;;10.20;10.00;;;21.00;46.30;;;;;;4952216;28;20535;-50
2023/03/11 02:13:39;;;;;;;9.63;9.43;;;21.00;46.30;;;;;;4952247;28;20481;-48
2023/03/11 02:16:07;;;;;;;11.60;11.30;;;21.00;46.30;;;;;;4952303;28;20504;-49
2023/03/11 02:18:34;;;;;;;10.70;10.50;;;21.00;46.40;;;;;;4951896;28;20453;-49
2023/03/11 02:21:10;;;;;;;10.53;10.23;;;21.00;46.40;;;;;;4952299;28;20882;-48
2023/03/11 02:23:47;;;;;;;10.20;10.00;;;21.00;46.40;;;;;;4951971;28;20487;-48
2023/03/11 02:26:19;;;;;;;11.00;10.70;;;21.00;46.50;;;;;;4952163;28;20552;-48
2023/03/11 02:28:50;;;;;;;10.10;9.80;;;21.00;46.50;;;;;;4951812;28;20568;-48
2023/03/11 02:31:17;;;;;;;11.13;10.77;;;21.00;46.40;;;;;;4951978;28;20477;-49
2023/03/11 02:33:45;;;;;;;10.47;10.27;;;21.00;46.40;;;;;;4952023;28;20542;-48
2023/03/11 02:36:31;;;;;;;10.50;10.20;;;21.00;46.40;;;;;;4951825;28;20519;-53
2023/03/11 02:38:58;;;;;;;11.80;11.50;;;21.00;46.40;;;;;;4951726;28;20528;-49
2023/03/11 02:41:25;;;;;;;11.30;11.00;;;21.00;46.50;;;;;;4952021;28;20473;-49
2023/03/11 02:43:54;;;;;;;10.60;10.30;;;21.00;46.40;;;;;;4951985;28;20482;-50
2023/03/11 02:46:21;;;;;;;10.40;10.20;;;21.00;46.40;;;;;;4983735;22;20491;-54
2023/03/11 02:48:49;;;;;;;10.67;10.30;;;21.00;46.40;;;;;;5041932;28;20566;-54
2023/03/11 02:51:15;;;;;;;11.20;10.87;;;21.00;46.40;;;;;;5035206;28;20483;-52
2023/03/11 02:53:51;;;;;;;11.00;10.73;;;21.00;46.40;;;;;;5033057;28;20487;-56
2023/03/11 02:56:18;;;;;;;10.00;9.80;;;21.00;46.40;;;;;;5033308;28;20528;-55
2023/03/11 02:58:45;;;;;;;10.57;10.27;;;20.90;46.40;;;;;;5033004;28;20478;-50
2023/03/11 03:01:13;;;;;;;10.20;9.97;;;20.90;46.60;;;;;;5033002;28;20480;-53
2023/03/11 03:03:40;;;;;;;11.50;11.10;;;20.90;46.70;;;;;;5032830;28;20544;-56
2023/03/11 03:06:07;;;;;;;10.70;10.50;;;20.90;46.90;;;;;;5033283;28;20889;-57
2023/03/11 03:08:34;;;;;;;10.90;10.60;;;20.90;47.00;;;;;;5032948;28;20508;-54
2023/03/11 03:11:02;;;;;;;10.50;10.20;;;20.80;47.50;;;;;;5033752;28;20477;-57
2023/03/11 03:13:29;;;;;;;10.07;9.87;;;20.80;47.10;;;;;;5033216;28;20541;-55
2023/03/11 03:15:56;;;;;;;10.50;10.30;;;20.80;47.10;;;;;;5034064;28;20472;-57
2023/03/11 03:18:24;;;;;;;10.90;10.60;;;20.80;47.10;;;;;;5033853;28;20920;-55
2023/03/11 03:20:51;;;;;;;10.60;10.30;;;20.80;47.10;;;;;;5034092;28;20854;-53
2023/03/11 03:23:19;;;;;;;10.93;10.63;;;20.80;47.20;;;;;;5033849;28;20479;-56
2023/03/11 03:25:46;;;;;;;10.43;10.13;;;20.80;47.20;;;;;;5033923;28;20484;-55
2023/03/11 03:28:13;;;;;;;10.37;10.17;;;20.80;47.20;;;;;;5033801;28;20532;-55
2023/03/11 03:30:41;;;;;;;12.70;12.30;;;20.80;47.20;;;;;;5032547;28;20483;-51
2023/03/11 03:33:08;;;;;;;11.23;10.93;;;20.80;47.20;;;;;;5032452;28;20477;-55
2023/03/11 03:35:40;;;;;;;10.63;10.33;;;20.80;47.20;;;;;;5033570;28;20473;-54
2023/03/11 03:38:07;;;;;;;10.60;10.30;;;20.80;47.20;;;;;;5033276;28;20485;-55
2023/03/11 03:40:33;;;;;;;11.30;11.00;;;20.80;47.30;;;;;;5033289;28;20944;-54
2023/03/11 03:43:00;;;;;;;11.10;10.57;;;20.70;47.30;;;;;;5032731;28;20499;-55
2023/03/11 03:45:27;;;;;;;10.00;9.80;;;20.80;47.30;;;;;;5032316;28;20928;-52
2023/03/11 03:47:54;;;;;;;10.10;9.90;;;20.80;47.30;;;;;;5032073;28;20927;-55
2023/03/11 03:50:21;;;;;;;11.10;10.70;;;20.80;47.20;;;;;;5032409;28;20441;-55
2023/03/11 03:52:50;;;;;;;10.33;10.03;;;20.70;47.30;;;;;;5032333;28;20480;-54
2023/03/11 03:55:17;;;;;;;10.93;10.73;;;20.70;47.30;;;;;;5031926;28;20444;-52
2023/03/11 03:57:44;;;;;;;10.20;10.00;;;20.70;47.30;;;;;;5031847;28;20465;-57
2023/03/11 04:00:12;;;;;;;10.50;10.30;;;20.80;47.30;;;;;;5031966;28;20481;-51
2023/03/11 04:02:38;;;;;;;10.90;10.67;;;20.70;47.30;;;;;;5031523;28;20494;-55
2023/03/11 04:05:06;;;;;;;11.27;10.97;;;20.70;47.30;;;;;;5032041;28;20481;-53
2023/03/11 04:07:34;;;;;;;11.70;11.40;;;20.80;47.40;;;;;;5031477;28;20513;-54
2023/03/11 04:10:04;;;;;;;11.30;11.10;;;20.70;47.30;;;;;;5032180;28;20441;-54
2023/03/11 04:12:31;;;;;;;11.73;11.43;;;20.70;47.40;;;;;;5035003;28;20495;-52
2023/03/11 04:14:57;;;;;;;11.40;11.00;;;20.70;47.40;;;;;;5032017;28;20484;-52
2023/03/11 04:17:24;;;;;;;11.80;11.50;;;20.70;47.40;;;;;;5031906;28;20508;-52
2023/03/11 04:19:51;;;;;;;12.07;11.77;;;20.70;47.40;;;;;;5031845;28;20483;-53
2023/03/11 04:22:18;;;;;;;10.10;9.90;;;20.70;47.30;;;;;;5031509;28;20537;-57
2023/03/11 04:24:45;;;;;;;11.30;11.00;;;20.70;47.40;;;;;;5031483;28;20487;-53
2023/03/11 04:27:13;;;;;;;11.43;11.13;;;20.70;47.40;;;;;;5031717;28;20548;-52
2023/03/11 04:29:40;;;;;;;11.53;11.23;;;20.70;47.40;;;;;;5032000;28;20485;-52
2023/03/11 04:32:08;;;;;;;10.50;10.30;;;20.70;47.40;;;;;;5034548;28;20481;-55
2023/03/11 04:34:34;;;;;;;10.90;10.60;;;20.70;47.30;;;;;;5035645;28;20481;-53
2023/03/11 04:37:01;;;;;;;11.87;11.37;;;20.70;47.30;;;;;;5035911;28;20497;-51
2023/03/11 04:39:28;;;;;;;10.30;10.10;;;20.70;47.40;;;;;;5036015;28;20474;-53
2023/03/11 04:41:55;;;;;;;10.60;10.40;;;20.70;47.40;;;;;;5035570;28;20476;-52
2023/03/11 04:44:23;;;;;;;10.90;10.60;;;20.70;47.40;;;;;;5035705;28;20483;-54
2023/03/11 04:46:50;;;;;;;11.17;10.87;;;20.80;47.40;;;;;;5034782;28;21001;-50
2023/03/11 04:49:17;;;;;;;11.70;11.40;;;20.80;47.30;;;;;;5035299;28;20516;-53
2023/03/11 04:51:44;;;;;;;11.00;10.70;;;20.80;47.10;;;;;;5035560;28;20476;-56
2023/03/11 04:54:11;;;;;;;10.13;9.93;;;20.80;47.10;;;;;;5035111;28;20487;-51
2023/03/11 04:56:37;;;;;;;11.17;10.77;;;20.90;47.00;;;;;;5034457;28;20984;-53
2023/03/11 04:59:04;;;;;;;10.40;10.10;;;20.90;47.00;;;;;;5035547;28;20871;-51
2023/03/11 05:01:33;;;;;;;11.77;11.47;;;20.90;47.10;;;;;;5035457;28;20476;-53
2023/03/11 05:04:00;;;;;;;11.87;11.57;;;20.90;47.60;;;;;;5035759;28;20483;-54
2023/03/11 05:06:26;;;;;;;11.20;10.90;;;20.90;47.00;;;;;;5035030;28;20549;-51
2023/03/11 05:08:53;;;;;;;11.40;11.10;;;20.90;47.00;;;;;;5036115;28;20575;-54
2023/03/11 05:11:20;;;;;;;12.10;11.80;;;20.90;47.00;;;;;;5036430;28;20480;-51
2023/03/11 05:13:47;;;;;;;11.60;11.20;;;20.90;47.00;;;;;;5036179;28;20480;-57
2023/03/11 05:16:14;;;;;;;12.80;12.50;;;20.90;47.00;;;;;;5034901;28;20503;-51
2023/03/11 05:18:42;;;;;;;13.37;12.97;;;21.00;47.00;;;;;;5035239;28;20472;-53
2023/03/11 05:21:09;;;;;;;10.70;10.50;;;21.00;47.00;;;;;;5034752;28;20879;-54
2023/03/11 05:23:36;;;;;;;11.30;11.03;;;21.00;47.00;;;;;;5034642;28;20477;-55
2023/03/11 05:26:03;;;;;;;10.90;10.60;;;21.00;46.90;;;;;;5034864;28;20832;-50
2023/03/11 05:28:30;;;;;;;11.47;11.17;;;21.00;47.00;;;;;;5036039;28;20511;-55
2023/03/11 05:30:57;;;;;;;11.70;11.40;;;21.00;46.90;;;;;;5035985;28;20480;-51
2023/03/11 05:33:23;;;;;;;12.37;12.07;;;21.00;46.80;;;;;;5036175;28;20488;-53
2023/03/11 05:35:52;;;;;;;10.83;10.43;;;21.00;46.80;;;;;;5037086;28;20515;-52
2023/03/11 05:38:19;;;;;;;12.10;11.80;;;21.10;46.80;;;;;;5037384;28;20493;-55
2023/03/11 05:40:45;;;;;;;12.20;11.90;;;21.10;46.80;;;;;;5036658;28;20952;-53
2023/03/11 05:43:12;;;;;;;11.93;11.63;;;21.10;46.90;;;;;;5033893;28;20453;-54
2023/03/11 05:45:39;;;;;;;12.03;11.73;;;21.10;46.80;;;;;;5035945;28;20487;-52
2023/03/11 05:48:06;;;;;;;12.13;11.83;;;21.10;46.70;;;;;;5035063;28;20509;-55
2023/03/11 05:50:33;;;;;;;11.17;10.97;;;21.10;46.80;;;;;;5035951;28;20484;-50
2023/03/11 05:53:01;;;;;;;10.70;10.40;;;21.10;46.70;;;;;;5035688;28;20469;-53
2023/03/11 05:55:28;;;;;;;13.20;12.80;;;21.20;46.80;;;;;;5034358;28;20492;-52
2023/03/11 05:57:55;;;;;;;12.80;12.50;;;21.20;48.20;;;;;;5034928;28;20493;-51
2023/03/11 06:00:27;;;;;;;12.90;12.60;;;21.30;47.80;;;;;;5033971;28;20472;-54
2023/03/11 06:02:55;;;;;;;12.70;12.40;;;21.40;47.40;;;;;;5017130;28;20524;-54
2023/03/11 06:05:22;;;;;;;12.35;11.85;;;21.50;47.40;;;;;;5033691;28;20841;-57
2023/03/11 06:07:49;;;;;;;12.60;12.30;;;21.60;47.40;;;;;;5033868;28;20675;-56
2023/03/11 06:10:18;;;;;;;13.93;13.10;;;21.70;47.40;;;;;;5033873;28;20516;-60
2023/03/11 06:12:45;;;;;;;9.65;9.25;;;21.70;46.90;;;;;;5033369;28;20441;-58
2023/03/11 06:15:12;;;;;;;12.23;11.83;;;21.80;47.10;;;;;;5033550;28;20242;-57
2023/03/11 06:17:38;;;;;;;13.40;13.00;;;21.90;46.70;;;;;;5033260;28;20468;-54
2023/03/11 06:20:07;;;;;;;12.73;12.33;;;21.90;45.70;;;;;;5032882;28;20480;-57
2023/03/11 06:22:34;;;;;;;12.30;11.90;;;21.40;40.40;;;;;;5032753;28;20481;-54
2023/03/11 06:25:02;;;;;;;12.00;11.60;;;21.50;40.70;;;;;;5033609;28;20532;-56
2023/03/11 06:27:30;;;;;;;12.13;11.73;;;21.70;41.80;;;;;;5033583;28;20493;-54
2023/03/11 06:29:57;;;;;;;12.03;11.63;;;21.70;43.30;;;;;;5032609;28;20547;-56
2023/03/11 06:32:24;;;;;;;12.50;11.80;;;21.80;44.00;;;;;;5013020;28;20523;-51
2023/03/11 06:34:52;;;;;;;12.20;11.90;;;21.80;44.20;;;;;;5013230;28;20490;-54
2023/03/11 06:37:20;;;;;;;11.10;10.60;;;21.80;43.90;;;;;;5013161;28;20509;-56
2023/03/11 06:39:47;;;;;;;11.13;10.80;;;21.80;43.80;;;;;;5025258;28;20952;-51
2023/03/11 06:42:14;;;;;;;11.37;11.07;;;21.80;43.80;;;;;;5032460;28;20484;-54
2023/03/11 06:44:42;;;;;;;12.07;11.77;;;21.80;44.00;;;;;;5032804;28;20878;-56
2023/03/11 06:47:11;;;;;;;11.73;11.33;;;21.80;44.00;;;;;;5032619;28;20473;-52
2023/03/11 06:49:39;;;;;;;11.00;10.70;;;21.80;44.00;;;;;;5032256;28;20563;-49
2023/03/11 06:52:06;;;;;;;12.73;12.37;;;21.80;44.10;;;;;;5032577;28;20819;-51
2023/03/11 06:54:33;;;;;;;11.50;11.20;;;21.80;44.10;;;;;;5032127;28;20882;-53
2023/03/11 06:57:00;;;;;;;11.50;11.20;;;21.80;44.20;;;;;;5032482;28;20473;-50
2023/03/11 06:59:28;;;;;;;11.03;10.73;;;21.80;44.20;;;;;;5032218;28;20484;-51
2023/03/11 07:01:56;;;;;;;11.47;11.07;;;21.80;44.20;;;;;;5032336;28;20437;-53
2023/03/11 07:04:23;;;;;;;13.20;12.80;;;21.90;44.30;;;;;;5032216;28;20476;-52
2023/03/11 07:06:50;;;;;;;11.93;11.63;;;21.90;44.20;;;;;;5032118;28;20500;-55
2023/03/11 07:09:17;;;;;;;11.97;11.60;;;21.80;44.20;;;;;;5031917;28;20508;-56
2023/03/11 07:11:44;;;;;;;9.30;9.00;;;21.90;44.30;;;;;;5031007;28;20473;-54
2023/03/11 07:14:11;;;;;;;11.77;11.40;;;21.80;44.40;;;;;;5032051;28;20630;-55
2023/03/11 07:16:39;;;;;;;11.07;10.77;;;21.90;44.40;;;;;;5031800;28;20497;-54
2023/03/11 07:19:07;;;;;;;12.47;12.07;;;21.90;44.30;;;;;;5031821;28;20843;-55
2023/03/11 07:21:34;;;;;;;13.30;13.00;;;21.90;44.50;;;;;;5032061;28;20456;-55
2023/03/11 07:24:02;;;;;;;13.27;12.90;;;21.80;44.50;;;;;;5032263;28;20488;-58
2023/03/11 07:26:30;;;;;;;11.90;11.60;;;21.80;44.60;;;;;;5032801;28;20497;-58
2023/03/11 07:28:58;;;;;;;12.87;12.47;;;21.80;44.60;;;;;;5031896;28;20566;-54
2023/03/11 07:31:26;;;;;;;11.17;10.87;;;21.80;44.50;;;;;;5031709;28;20524;-52
2023/03/11 07:33:53;;;;;;;12.40;12.00;;;21.80;44.50;;;;;;5031761;28;20506;-57
2023/03/11 07:36:24;;;;;;;11.63;11.33;;;21.80;44.60;;;;;;5031628;28;20480;-54
2023/03/11 07:38:57;;;;;;;12.40;11.90;;;21.80;44.70;;;;;;5031424;28;20454;-54
2023/03/11 07:41:24;;;;;;;11.83;11.53;;;21.80;44.70;;;;;;5011992;28;20808;-54
2023/03/11 07:43:55;;;;;;;13.43;13.03;;;21.80;44.60;;;;;;5012628;28;20441;-59
2023/03/11 07:46:23;;;;;;;11.02;10.73;;;21.80;44.40;;;;;;5011278;28;20435;-57
2023/03/11 07:48:51;;;;;;;13.43;12.93;;;21.80;44.60;;;;;;5027181;28;20304;-57
2023/03/11 07:51:22;;;;;;;12.13;11.80;;;21.80;44.60;;;;;;5031656;28;20472;-58
2023/03/11 07:53:50;;;;;;;12.47;12.00;;;21.80;44.60;;;;;;5031590;28;20477;-57
2023/03/11 07:56:18;;;;;;;13.27;12.87;;;21.80;44.60;;;;;;5031588;28;20884;-55
2023/03/11 07:58:46;;;;;;;12.00;11.70;;;21.80;44.60;;;;;;5031080;28;20456;-60
2023/03/11 08:01:15;;;;;;;12.57;12.07;;;21.70;44.60;;;;;;5031326;28;20491;-55
2023/03/11 08:03:43;;;;;;;11.50;11.20;;;21.80;44.70;;;;;;5031502;28;20877;-57
2023/03/11 08:06:14;;;;;;;12.00;11.70;;;21.80;44.60;;;;;;5033082;28;20487;-53
2023/03/11 08:08:43;;;;;;;12.33;11.97;;;21.70;44.30;;;;;;5035809;28;20968;-58
2023/03/11 08:11:10;;;;;;;12.57;12.13;;;21.70;44.50;;;;;;5035880;28;20492;-46
2023/03/11 08:13:37;;;;;;;12.90;12.47;;;21.70;44.60;;;;;;5035454;28;20481;-57
2023/03/11 08:16:05;;;;;;;13.07;12.57;;;21.80;44.40;;;;;;5035321;28;20448;-56
2023/03/11 08:18:32;;;;;;;12.63;12.23;;;21.70;44.10;;;;;;5035727;28;20540;-62
2023/03/11 08:20:59;;;;;;;14.10;13.70;;;21.80;44.60;;;;;;5035493;28;20480;-62
2023/03/11 08:23:26;;;;;;;12.97;12.57;;;21.80;44.80;;;;;;5035140;28;20880;-59
2023/03/11 08:25:54;;;;;;;11.00;10.70;;;21.90;45.10;;;;;;5035633;28;20891;-60
2023/03/11 08:28:21;;;;;;;12.23;11.93;;;22.00;45.10;;;;;;5035486;28;20543;-60
2023/03/11 08:30:48;;;;;;;12.17;11.77;;;22.00;45.00;;;;;;5034499;28;20521;-60
2023/03/11 08:33:14;;;;;;;15.33;14.20;;;22.10;45.20;;;;;;5035226;28;20484;-60
2023/03/11 08:35:41;;;;;;;14.73;14.03;;;22.10;45.50;;;;;;5035301;28;20504;-59
2023/03/11 08:38:08;;;;;;;15.00;13.70;;;22.10;45.80;;;;;;5034769;28;20904;-60
2023/03/11 08:40:35;;;;;;;16.20;14.70;;;22.20;46.30;;;;;;5034970;28;20495;-60
2023/03/11 08:43:03;;;;;;;13.80;12.90;;;22.20;46.70;;;;;;5034667;28;20531;-62
2023/03/11 08:45:30;;;;;;;13.67;12.60;;;22.20;47.00;;;;;;5034911;28;20488;-60
2023/03/11 08:47:57;;;;;;;16.97;15.30;;;22.30;47.50;;;;;;5076772;23;20528;-48
2023/03/11 08:50:24;;;;;;;17.27;15.87;;;22.30;49.30;;;;;;5042992;28;21051;-47
2023/03/11 08:52:51;;;;;;;38.17;17.73;;;22.40;50.10;;;;;;5034918;28;20969;-48
2023/03/11 08:55:23;;;;;;;17.07;15.60;;;22.40;51.20;;;;;;5035028;28;20498;-48
2023/03/11 08:57:50;;;;;;;17.50;15.83;;;22.40;51.70;;;;;;5034367;28;20831;-48
2023/03/11 09:00:20;;;;;;;16.40;15.30;;;22.50;52.30;;;;;;5035090;28;20495;-49
2023/03/11 09:02:47;;;;;;;16.83;15.47;;;22.50;52.60;;;;;;5034406;28;20484;-49
2023/03/11 09:05:14;;;;;;;19.27;17.70;;;22.50;52.70;;;;;;5034873;28;20461;-49
2023/03/11 09:07:41;;;;;;;17.20;15.77;;;22.50;52.70;;;;;;5034290;28;20501;-46
2023/03/11 09:10:11;;;;;;;15.13;14.07;;;22.50;52.50;;;;;;5034632;28;20512;-48
2023/03/11 09:12:38;;;;;;;15.17;13.90;;;22.50;52.50;;;;;;5034177;28;20801;-49
2023/03/11 09:15:05;;;;;;;17.63;15.93;;;22.60;52.20;;;;;;5034641;28;20472;-49
2023/03/11 09:17:34;;;;;;;16.80;15.80;;;22.60;52.00;;;;;;5034091;28;20859;-54
2023/03/11 09:20:01;;;;;;;14.33;13.47;;;22.60;51.80;;;;;;5034424;28;20484;-49
2023/03/11 09:22:28;;;;;;;16.07;14.87;;;22.50;51.60;;;;;;5034260;28;20511;-48
2023/03/11 09:24:55;;;;;;;16.47;15.53;;;22.60;51.70;;;;;;5034213;28;20492;-48
2023/03/11 09:27:22;;;;;;;13.23;12.20;;;22.60;51.50;;;;;;5033473;28;20867;-48
2023/03/11 09:29:48;;;;;;;15.33;14.27;;;22.60;51.40;;;;;;5034605;28;20265;-48
2023/03/11 09:32:16;;;;;;;14.10;13.13;;;22.60;51.10;;;;;;5034481;28;20481;-47
2023/03/11 09:34:44;;;;;;;13.00;12.40;;;22.70;51.00;;;;;;5034044;28;20973;-46
2023/03/11 09:37:11;;;;;;;13.70;12.87;;;22.60;50.80;;;;;;5033660;28;20505;-48
2023/03/11 09:39:37;;;;;;;16.10;14.80;;;22.60;50.50;;;;;;5034067;28;20525;-47
2023/03/11 09:42:15;;;;;;;12.65;11.85;;;22.70;50.50;;;;;;5032592;28;20474;-45
2023/03/11 09:44:48;;;;;;;15.77;14.77;;;22.60;50.60;;;;;;5034096;28;20232;-47
2023/03/11 09:47:37;;;;;;;14.27;13.10;;;22.70;50.20;;;;;;5033127;28;20512;-49
2023/03/11 09:50:15;;;;;;;14.70;13.57;;;22.70;50.10;;;;;;5033578;28;20571;-45
2023/03/11 09:52:47;;;;;;;14.80;13.90;;;22.70;49.90;;;;;;5033735;28;20456;-45
2023/03/11 09:55:34;;;;;;;14.07;12.97;;;22.60;49.80;;;;;;5033808;28;20488;-47
2023/03/11 09:58:07;;;;;;;14.57;13.80;;;22.60;49.90;;;;;;5033172;28;20833;-47
2023/03/11 10:00:34;;;;;;;15.07;13.93;;;22.60;49.90;;;;;;5013854;28;20474;-48
2023/03/11 10:03:02;;;;;;;16.70;15.87;;;22.60;49.80;;;;;;5013557;28;20871;-45
2023/03/11 10:05:32;;;;;;;15.00;13.60;;;22.60;49.80;;;;;;5013771;28;20876;-48
2023/03/11 10:08:03;;;;;;;14.30;13.70;;;22.60;49.70;;;;;;5030168;28;20980;-47
2023/03/11 10:10:38;;;;;;;14.47;13.87;;;22.50;49.50;;;;;;5033275;28;20573;-52
2023/03/11 10:13:14;;;;;;;14.90;14.30;;;22.50;49.50;;;;;;5033012;28;20923;-48
2023/03/11 10:15:50;;;;;;;13.90;13.30;;;22.50;49.40;;;;;;5033222;28;20524;-47
2023/03/11 10:18:37;;;;;;;14.03;13.27;;;22.60;49.40;;;;;;5032806;28;20500;-48
2023/03/11 10:21:12;;;;;;;12.80;12.10;;;22.60;49.40;;;;;;5032572;28;20797;-46
2023/03/11 10:24:06;;;;;;;15.10;14.40;;;22.60;49.20;;;;;;5033094;28;20229;-46
2023/03/11 10:26:37;;;;;;;13.27;12.48;;;22.70;49.10;;;;;;5032121;28;20876;-47
2023/03/11 10:29:13;;;;;;;15.40;14.80;;;22.70;48.90;;;;;;5032255;28;20205;-50
2023/03/11 10:31:46;;;;;;;15.17;14.30;;;22.70;48.60;;;;;;5032798;28;20917;-50
2023/03/11 10:34:21;;;;;;;13.60;13.10;;;22.70;48.20;;;;;;5033123;28;20487;-48
2023/03/11 10:36:57;;;;;;;12.30;11.80;;;22.70;48.40;;;;;;5031483;28;20457;-50
2023/03/11 10:39:25;;;;;;;14.90;14.10;;;22.70;48.50;;;;;;5032748;28;20604;-49
2023/03/11 10:41:55;;;;;;;14.30;13.57;;;22.70;48.30;;;;;;5032091;28;20446;-51
2023/03/11 10:44:27;;;;;;;15.10;13.87;;;22.70;48.20;;;;;;5032758;28;20488;-53
2023/03/11 10:46:54;;;;;;;14.47;13.77;;;22.90;48.70;;;;;;5032267;28;21021;-53
2023/03/11 10:49:21;;;;;;;14.00;13.40;;;23.00;48.60;;;;;;5031653;28;20875;-55
2023/03/11 10:51:49;;;;;;;14.00;13.40;;;23.10;48.40;;;;;;5031394;28;20523;-52
2023/03/11 10:54:28;;;;;;;12.90;12.40;;;23.10;48.20;;;;;;5031598;28;20495;-55
2023/03/11 10:56:58;;;;;;;13.83;13.30;;;23.20;48.00;;;;;;5031654;28;20523;-55
2023/03/11 10:59:29;;;;;;;14.83;14.03;;;23.20;47.80;;;;;;5031551;28;20537;-57
2023/03/11 11:01:58;;;;;;;15.40;14.70;;;23.20;47.60;;;;;;5031327;28;20480;-57
2023/03/11 11:04:31;;;;;;;14.40;13.60;;;23.30;47.50;;;;;;5031307;28;20985;-53
2023/03/11 11:06:59;;;;;;;14.00;13.20;;;23.30;47.30;;;;;;5031283;28;21002;-53
2023/03/11 11:09:29;;;;;;;13.77;13.17;;;23.30;47.20;;;;;;5031259;28;20480;-52
2023/03/11 11:12:04;;;;;;;12.90;12.43;;;23.30;47.10;;;;;;5031380;28;20567;-56
2023/03/11 11:14:45;;;;;;;12.73;12.20;;;23.20;46.90;;;;;;5031328;28;20476;-55
2023/03/11 11:17:23;;;;;;;14.37;13.67;;;23.20;46.90;;;;;;5031164;28;20465;-53
2023/03/11 11:19:52;;;;;;;15.03;14.27;;;23.10;46.80;;;;;;5031279;28;20481;-53
2023/03/11 11:22:21;;;;;;;13.00;12.40;;;23.10;46.80;;;;;;5031150;28;20926;-56
2023/03/11 11:24:52;;;;;;;12.50;11.90;;;23.00;46.80;;;;;;5031111;28;20858;-53
2023/03/11 11:27:21;;;;;;;12.73;12.03;;;23.00;46.80;;;;;;5030788;28;20469;-55
2023/03/11 11:30:08;;;;;;;12.83;12.33;;;22.90;46.70;;;;;;5031107;28;20968;-57
2023/03/11 11:32:37;;;;;;;14.20;13.70;;;22.90;46.70;;;;;;5030767;28;20481;-55
2023/03/11 11:35:07;;;;;;;13.07;12.57;;;22.80;46.70;;;;;;5030934;28;20473;-54
2023/03/11 11:37:37;;;;;;;12.40;11.90;;;22.80;46.70;;;;;;5030845;28;20499;-56
2023/03/11 11:40:09;;;;;;;13.47;13.07;;;22.70;46.60;;;;;;5031057;28;20865;-59
2023/03/11 11:42:37;;;;;;;13.57;13.17;;;22.70;46.60;;;;;;5030669;28;20449;-52
2023/03/11 11:45:12;;;;;;;12.63;12.03;;;22.60;46.60;;;;;;5030825;28;20811;-56
2023/03/11 11:47:46;;;;;;;13.50;13.07;;;22.60;46.60;;;;;;4991756;28;1130177;-55
2023/03/11 11:50:17;;;;;;;12.23;11.73;;;22.60;46.50;;;;;;5031726;28;20568;-55
2023/03/11 11:52:49;;;;;;;13.27;12.57;;;22.60;46.60;;;;;;5031359;28;20476;-55
2023/03/11 11:55:20;;;;;;;13.27;12.77;;;22.60;46.50;;;;;;5030972;28;20481;-54
2023/03/11 11:57:48;;;;;;;13.10;12.57;;;22.50;46.50;;;;;;5028856;28;20504;-51
2023/03/11 12:00:20;;;;;;;12.63;12.23;;;22.50;46.50;;;;;;5031393;28;20457;-51
2023/03/11 12:03:06;;;;;;;13.13;12.73;;;22.20;45.80;;;;;;5031028;28;20454;-51
2023/03/11 12:05:38;;;;;;;12.83;12.43;;;22.10;46.10;;;;;;5029826;28;20445;-49
2023/03/11 12:08:15;;;;;;;13.20;12.70;;;22.00;46.50;;;;;;5031279;28;20913;-50
2023/03/11 12:10:48;;;;;;;13.03;12.53;;;22.10;46.80;;;;;;5031500;28;20573;-51
2023/03/11 12:13:44;;;;;;;12.50;12.10;;;22.00;46.50;;;;;;5031518;28;20545;-57
2023/03/11 12:16:21;;;;;;;12.60;12.07;;;22.00;46.70;;;;;;5031207;28;20449;-55
2023/03/11 12:18:53;;;;;;;13.77;12.93;;;22.00;46.70;;;;;;5031214;28;21027;-52
2023/03/11 12:21:38;;;;;;;13.10;12.60;;;22.00;46.80;;;;;;5031243;28;20468;-49
2023/03/11 12:24:24;;;;;;;13.47;13.07;;;22.00;46.90;;;;;;5030851;28;20472;-51
2023/03/11 12:26:53;;;;;;;13.07;12.67;;;22.00;46.90;;;;;;5021828;28;20500;-51
2023/03/11 12:29:26;;;;;;;12.90;12.20;;;22.00;46.80;;;;;;5031204;28;20484;-48
2023/03/11 12:31:55;;;;;;;12.63;12.23;;;22.00;46.90;;;;;;5031047;28;20520;-48
2023/03/11 12:34:24;;;;;;;10.10;9.70;;;22.00;46.90;;;;;;5029618;28;20561;-52
2023/03/11 12:36:52;;;;;;;13.17;12.77;;;22.00;46.90;;;;;;5031106;28;20465;-53